| time (UTC) | temp F | wind direction | speed knots | gust knots | rain 1hr in | rain 24hr in | rain mn in | humidity % | barometer mb |
| 20260508100810 | 53 | 146 | 7.8 | 15.6 | 0.03 | 0.57 | 0.37 | 100 | 1010.2 |
| 20260508100309 | 53 | 152 | 10.4 | 15.6 | 0.03 | 0.57 | 0.37 | 100 | 1010.1 |
| 20260508095810 | 53 | 150 | 7.0 | 12.2 | 0.02 | 0.56 | 0.36 | 100 | 1010.1 |
| 20260508093810 | 53 | 155 | 5.2 | 7.8 | 0.03 | 0.55 | 0.35 | 100 | 1010.1 |
| 20260508092809 | 53 | 155 | 5.2 | 7.0 | 0.04 | 0.55 | 0.35 | 100 | 1010.2 |
| 20260508092313 | 53 | 158 | 4.3 | 7.8 | 0.04 | 0.54 | 0.35 | 100 | 1010.2 |
| 20260508091310 | 52 | 171 | 4.3 | 8.7 | 0.04 | 0.54 | 0.35 | 100 | 1010.1 |
| 20260508084310 | 52 | 179 | 4.3 | 7.8 | 0.04 | 0.52 | 0.32 | 100 | 1009.8 |
| 20260508083810 | 51 | 180 | 4.3 | 8.7 | 0.05 | 0.52 | 0.32 | 100 | 1009.8 |
| 20260508083309 | 51 | 180 | 6.1 | 8.7 | 0.05 | 0.51 | 0.31 | 100 | 1009.8 |
| 20260508082810 | 51 | 173 | 5.2 | 8.7 | 0.06 | 0.51 | 0.31 | 100 | 1009.7 |
| 20260508082310 | 51 | 161 | 4.3 | 7.8 | 0.06 | 0.50 | 0.31 | 100 | 1009.5 |
| 20260508080809 | 51 | 140 | 4.3 | 7.0 | 0.09 | 0.50 | 0.31 | 100 | 1009.3 |
| 20260508075310 | 51 | 176 | 2.6 | 7.8 | 0.09 | 0.49 | 0.29 | 100 | 1009.6 |
| 20260508073809 | 51 | 163 | 2.6 | 7.0 | 0.09 | 0.47 | 0.28 | 100 | 1009.7 |
| 20260508072809 | 51 | 178 | 3.5 | 7.0 | 0.09 | 0.45 | 0.25 | 100 | 1009.7 |
| 20260508072310 | 51 | 183 | 6.1 | 7.0 | 0.10 | 0.44 | 0.24 | 100 | 1009.7 |
| 20260508071310 | 51 | 183 | 6.1 | 7.0 | 0.10 | 0.42 | 0.22 | 100 | 1009.5 |
| 20260508070810 | 51 | 183 | 6.1 | 7.0 | 0.13 | 0.41 | 0.21 | 100 | 1009.3 |
| 20260508070309 | 51 | 183 | 6.1 | 7.0 | 0.20 | 0.41 | 0.21 | 100 | 1009.2 |
| 20260508065809 | 51 | 183 | 6.1 | 7.0 | 0.18 | 0.39 | 0.20 | 100 | 1009.1 |
| 20260508063309 | 50 | 183 | 6.1 | 7.0 | 0.16 | 0.36 | 0.17 | 100 | 1009.7 |
| 20260508062809 | 50 | 183 | 6.1 | 7.0 | 0.15 | 0.35 | 0.16 | 100 | 1009.6 |
| 20260508062310 | 50 | 183 | 6.1 | 7.0 | 0.13 | 0.34 | 0.14 | 100 | 1009.6 |
| 20260508061810 | 49 | 183 | 6.1 | 7.0 | 0.13 | 0.33 | 0.13 | 100 | 1009.7 |
| 20260508060310 | 48 | 198 | 7.0 | 10.4 | 0.01 | 0.21 | 0.02 | 100 | 1009.6 |
| 20260508055309 | 46 | 207 | 4.3 | 5.2 | 0.00 | 0.20 | 0.01 | 100 | 1009.1 |
| 20260508054810 | 46 | 217 | 2.6 | 2.6 | 0.00 | 0.20 | 0.01 | 100 | 1008.8 |
| 20260508053809 | 46 | 119 | 0.9 | 0.9 | 0.00 | 0.20 | 0.01 | 100 | 1008.3 |
| 20260508052810 | 45 | 353 | 0.9 | 2.6 | 0.00 | 0.20 | 0.01 | 100 | 1008.2 |
| 20260508051809 | 45 | 63 | 0.9 | 1.7 | 0.00 | 0.20 | 0.01 | 100 | 1008.3 |
| 20260508051309 | 45 | 26 | 0.9 | 2.6 | 0.00 | 0.20 | 0.01 | 100 | 1008.2 |
| 20260508050810 | 45 | 32 | 1.7 | 2.6 | 0.00 | 0.20 | 0.01 | 100 | 1008.2 |
| 20260508050309 | 45 | 89 | 1.7 | 2.6 | 0.00 | 0.20 | 0.01 | 100 | 1008.3 |
| 20260508045809 | 45 | 110 | 0.9 | 2.6 | 0.00 | 0.20 | 0.01 | 100 | 1008.2 |
| 20260508043309 | 46 | 303 | 0.9 | 1.7 | 0.00 | 0.20 | 0.01 | 100 | 1008.3 |
| 20260508042309 | 46 | 164 | 0.9 | 2.6 | 0.00 | 0.20 | 0.01 | 100 | 1008.4 |
| 20260508041309 | 46 | 266 | 2.6 | 2.6 | 0.00 | 0.20 | 0.01 | 100 | 1008.3 |
| 20260508040810 | 46 | 271 | 1.7 | 4.3 | 0.00 | 0.20 | 0.01 | 100 | 1008.4 |
| 20260508040309 | 46 | 290 | 2.6 | 4.3 | 0.00 | 0.20 | 0.01 | 100 | 1008.3 |
| 20260508035309 | 46 | 295 | 1.7 | 2.6 | 0.00 | 0.20 | 0.01 | 100 | 1008.3 |
| 20260508034811 | 46 | 309 | 0.0 | 1.7 | 0.00 | 0.20 | 0.01 | 100 | 1008.3 |
| 20260508033809 | 46 | 284 | 0.9 | 2.6 | 0.00 | 0.20 | 0.01 | 100 | 1008.3 |
| 20260508033310 | 46 | 246 | 1.7 | 2.6 | 0.00 | 0.20 | 0.01 | 100 | 1008.4 |
| 20260508032309 | 46 | 239 | 1.7 | 2.6 | 0.00 | 0.20 | 0.01 | 100 | 1008.4 |
| 20260508031809 | 46 | 189 | 0.9 | 2.6 | 0.00 | 0.20 | 0.01 | 100 | 1008.4 |
| 20260508031310 | 46 | 156 | 1.7 | 2.6 | 0.00 | 0.20 | 0.01 | 100 | 1008.4 |
| 20260508030809 | 46 | 136 | 0.9 | 1.7 | 0.00 | 0.20 | 0.01 | 100 | 1008.4 |
| 20260508030309 | 46 | 138 | 0.9 | 1.7 | 0.00 | 0.20 | 0.01 | 100 | 1008.4 |
| 20260508025809 | 45 | 257 | 0.9 | 1.7 | 0.00 | 0.20 | 0.01 | 100 | 1008.5 |
| 20260508024309 | 46 | 309 | 1.7 | 2.6 | 0.00 | 0.20 | 0.01 | 100 | 1008.6 |
| 20260508023809 | 46 | 311 | 0.9 | 2.6 | 0.00 | 0.20 | 0.01 | 100 | 1008.7 |
| 20260508023309 | 46 | 244 | 2.6 | 2.6 | 0.00 | 0.20 | 0.01 | 100 | 1008.6 |
| 20260508021809 | 46 | 269 | 0.9 | 1.7 | 0.00 | 0.20 | 0.01 | 100 | 1008.8 |
| 20260508015309 | 45 | 197 | 0.0 | 1.7 | 0.00 | 0.20 | 0.01 | 100 | 1009.1 |
| 20260508014809 | 45 | 265 | 0.9 | 2.6 | 0.00 | 0.20 | 0.01 | 100 | 1009.1 |
| 20260508013810 | 45 | 356 | 1.7 | 2.6 | 0.00 | 0.20 | 0.01 | 100 | 1009.3 |
| 20260508013309 | 45 | 52 | 0.9 | 2.6 | 0.00 | 0.20 | 0.01 | 100 | 1009.3 |
| 20260508012809 | 45 | 206 | 0.9 | 2.6 | 0.00 | 0.20 | 0.01 | 100 | 1009.3 |
| 20260508011809 | 46 | 213 | 0.9 | 1.7 | 0.00 | 0.20 | 0.01 | 100 | 1009.5 |
| 20260508011310 | 46 | 214 | 0.9 | 2.6 | 0.00 | 0.20 | 0.01 | 100 | 1009.6 |
| 20260508010809 | 46 | 91 | 1.7 | 2.6 | 0.00 | 0.20 | 0.01 | 100 | 1009.5 |
| 20260508004809 | 47 | 251 | 1.7 | 2.6 | 0.00 | 0.20 | 0.01 | 100 | 1009.8 |
| 20260508003810 | 47 | 350 | 0.9 | 1.7 | 0.00 | 0.20 | 0.01 | 100 | 1009.8 |
| 20260508003309 | 47 | 42 | 1.7 | 1.7 | 0.00 | 0.20 | 0.01 | 100 | 1009.8 |
| 20260508002309 | 48 | 203 | 0.0 | 1.7 | 0.00 | 0.20 | 0.01 | 100 | 1010.1 |
| 20260508001809 | 48 | 15 | 0.9 | 1.7 | 0.00 | 0.20 | 0.01 | 100 | 1010.2 |
| 20260508001309 | 48 | 17 | 0.9 | 1.7 | 0.00 | 0.20 | 0.01 | 100 | 1010.2 |
| 20260508000309 | 49 | 258 | 0.9 | 1.7 | 0.01 | 0.20 | 0.01 | 100 | 1010.3 |
| 20260507233809 | 49 | 147 | 4.3 | 4.3 | 0.01 | 0.20 | 0.01 | 100 | 1010.5 |
| 20260507233309 | 49 | 145 | 2.6 | 4.3 | 0.01 | 0.20 | 0.01 | 100 | 1010.6 |
| 20260507232809 | 48 | 145 | 2.6 | 4.3 | 0.01 | 0.20 | 0.01 | 100 | 1010.5 |
| 20260507231810 | 48 | 138 | 3.5 | 4.3 | 0.01 | 0.20 | 0.01 | 100 | 1010.5 |
| 20260507231309 | 48 | 141 | 2.6 | 4.3 | 0.01 | 0.20 | 0.01 | 100 | 1010.7 |
| 20260507230309 | 47 | 179 | 0.9 | 2.6 | 0.00 | 0.20 | 0.00 | 100 | 1010.5 |
| 20260507225310 | 46 | 196 | 0.9 | 2.6 | 0.00 | 0.20 | 0.00 | 100 | 1010.6 |
| 20260507224810 | 46 | 201 | 1.7 | 2.6 | 0.00 | 0.20 | 0.00 | 100 | 1010.6 |
| 20260507223810 | 46 | 218 | 0.9 | 2.6 | 0.00 | 0.20 | 0.00 | 100 | 1010.7 |
| 20260507223309 | 46 | 236 | 2.6 | 2.6 | 0.00 | 0.20 | 0.00 | 100 | 1010.7 |
| 20260507222809 | 46 | 236 | 2.6 | 2.6 | 0.00 | 0.20 | 0.00 | 100 | 1010.7 |
| 20260507222309 | 46 | 225 | 1.7 | 2.6 | 0.00 | 0.20 | 0.00 | 100 | 1010.7 |
| 20260507221809 | 46 | 238 | 1.7 | 2.6 | 0.00 | 0.20 | 0.00 | 100 | 1010.6 |
| 20260507221312 | 46 | 227 | 0.9 | 4.3 | 0.00 | 0.20 | 0.00 | 100 | 1010.6 |
| 20260507220309 | 46 | 176 | 1.7 | 2.6 | 0.00 | 0.20 | 0.00 | 100 | 1010.6 |
| 20260507215309 | 46 | 88 | 1.7 | 5.2 | 0.00 | 0.20 | 0.20 | 100 | 1010.7 |
| 20260507214809 | 46 | 113 | 3.5 | 5.2 | 0.00 | 0.20 | 0.20 | 100 | 1010.7 |
| 20260507214309 | 45 | 105 | 2.6 | 4.3 | 0.00 | 0.20 | 0.20 | 100 | 1010.8 |
| 20260507212809 | 47 | 79 | 1.7 | 2.6 | 0.00 | 0.20 | 0.20 | 100 | 1010.9 |
| 20260507212309 | 47 | 105 | 0.9 | 2.6 | 0.00 | 0.20 | 0.20 | 100 | 1010.9 |
| 20260507211809 | 47 | 194 | 1.7 | 2.6 | 0.00 | 0.20 | 0.20 | 100 | 1010.9 |
| 20260507204309 | 49 | 135 | 1.7 | 2.6 | 0.00 | 0.20 | 0.20 | 100 | 1010.6 |
| 20260507203309 | 49 | 208 | 1.7 | 2.6 | 0.00 | 0.20 | 0.20 | 100 | 1010.4 |
| 20260507201809 | 49 | 207 | 1.7 | 2.6 | 0.00 | 0.20 | 0.20 | 100 | 1010.0 |
| 20260507201309 | 50 | 226 | 1.7 | 2.6 | 0.00 | 0.20 | 0.20 | 100 | 1010.0 |
| 20260507200809 | 50 | 245 | 2.6 | 2.6 | 0.00 | 0.20 | 0.20 | 100 | 1010.1 |
| 20260507200309 | 50 | 274 | 1.7 | 2.6 | 0.00 | 0.20 | 0.20 | 100 | 1010.0 |
| 20260507195309 | 51 | 250 | 1.7 | 2.6 | 0.00 | 0.20 | 0.20 | 100 | 1010.1 |
| 20260507194309 | 51 | 272 | 1.7 | 2.6 | 0.00 | 0.20 | 0.20 | 100 | 1009.8 |
| 20260507191809 | 52 | 38 | 1.7 | 6.1 | 0.00 | 0.20 | 0.20 | 100 | 1009.5 |
| 20260507191309 | 53 | 64 | 2.6 | 6.1 | 0.00 | 0.20 | 0.20 | 100 | 1009.3 |
| 20260507190809 | 53 | 98 | 3.5 | 6.1 | 0.00 | 0.20 | 0.20 | 100 | 1009.3 |
| 20260507190308 | 54 | 80 | 1.7 | 4.3 | 0.00 | 0.20 | 0.20 | 100 | 1009.3 |
| 20260507184310 | 55 | 86 | 5.2 | 11.3 | 0.00 | 0.20 | 0.20 | 100 | 1009.4 |
| 20260507183809 | 55 | 81 | 4.3 | 11.3 | 0.00 | 0.20 | 0.20 | 100 | 1009.4 |
| 20260507181809 | 55 | 90 | 8.7 | 15.6 | 0.00 | 0.20 | 0.20 | 100 | 1009.6 |
| 20260507175309 | 56 | 84 | 6.1 | 11.3 | 0.00 | 0.20 | 0.20 | 100 | 1010.0 |
| 20260507174809 | 56 | 70 | 5.2 | 10.4 | 0.00 | 0.20 | 0.20 | 100 | 1010.1 |
| 20260507174310 | 56 | 52 | 5.2 | 10.4 | 0.00 | 0.20 | 0.20 | 100 | 1010.2 |
| 20260507173809 | 56 | 63 | 4.3 | 13.0 | 0.00 | 0.20 | 0.20 | 100 | 1010.1 |
| 20260507173309 | 56 | 78 | 6.1 | 13.0 | 0.00 | 0.20 | 0.20 | 100 | 1010.0 |
| 20260507172808 | 57 | 75 | 7.8 | 12.2 | 0.00 | 0.20 | 0.20 | 100 | 1010.0 |
| 20260507171809 | 58 | 64 | 4.3 | 10.4 | 0.00 | 0.20 | 0.20 | 100 | 1010.0 |
| 20260507170309 | 57 | 30 | 5.2 | 7.8 | 0.00 | 0.20 | 0.20 | 100 | 1009.8 |
| 20260507165808 | 56 | 46 | 3.5 | 6.1 | 0.00 | 0.20 | 0.20 | 100 | 1010.0 |
| 20260507164310 | 57 | 30 | 5.2 | 10.4 | 0.00 | 0.20 | 0.20 | 100 | 1009.9 |
| 20260507163309 | 57 | 9 | 5.2 | 13.0 | 0.02 | 0.20 | 0.20 | 100 | 1009.9 |
| 20260507162809 | 58 | 5 | 8.7 | 13.0 | 0.06 | 0.20 | 0.20 | 100 | 1009.8 |
| 20260507161808 | 59 | 12 | 6.1 | 10.4 | 0.10 | 0.20 | 0.20 | 100 | 1009.6 |
| 20260507161309 | 58 | 15 | 6.1 | 10.4 | 0.12 | 0.20 | 0.20 | 100 | 1009.6 |
| 20260507160809 | 58 | 16 | 7.0 | 10.4 | 0.13 | 0.20 | 0.20 | 100 | 1009.4 |
| 20260507155308 | 57 | 10 | 7.0 | 12.2 | 0.15 | 0.20 | 0.20 | 100 | 1009.4 |
| 20260507154809 | 57 | 352 | 8.7 | 13.0 | 0.15 | 0.20 | 0.20 | 100 | 1009.5 |
| 20260507153808 | 57 | 334 | 10.4 | 14.8 | 0.16 | 0.19 | 0.19 | 100 | 1009.6 |
| 20260507153309 | 56 | 322 | 10.4 | 15.6 | 0.17 | 0.17 | 0.17 | 100 | 1009.6 |
| 20260507150809 | 60 | 313 | 8.7 | 15.6 | 0.06 | 0.06 | 0.06 | 100 | 1009.2 |
| 20260507150309 | 61 | 292 | 8.7 | 15.6 | 0.06 | 0.06 | 0.06 | 100 | 1009.0 |
| 20260507145808 | 61 | 280 | 10.4 | 15.6 | 0.06 | 0.06 | 0.06 | 100 | 1009.0 |
| 20260507145309 | 62 | 272 | 6.1 | 13.9 | 0.05 | 0.05 | 0.05 | 100 | 1008.9 |
| 20260507144808 | 62 | 301 | 10.4 | 13.9 | 0.05 | 0.05 | 0.05 | 100 | 1008.8 |
| 20260507144308 | 63 | 336 | 6.1 | 11.3 | 0.05 | 0.05 | 0.05 | 100 | 1008.6 |
| 20260507143808 | 63 | 275 | 7.0 | 12.2 | 0.03 | 0.03 | 0.03 | 99 | 1008.6 |
| 20260507142809 | 64 | 277 | 8.7 | 13.0 | 0.00 | 0.00 | 0.00 | 93 | 1008.5 |
| 20260507134808 | 72 | 203 | 4.3 | 12.2 | 0.00 | 0.00 | 0.00 | 73 | 1008.0 |
| 20260507134308 | 71 | 256 | 7.8 | 12.2 | 0.00 | 0.00 | 0.00 | 71 | 1008.0 |
| 20260507133309 | 71 | 234 | 6.1 | 11.3 | 0.00 | 0.00 | 0.00 | 70 | 1008.2 |
| 20260507132808 | 71 | 135 | 7.0 | 11.3 | 0.00 | 0.00 | 0.00 | 69 | 1008.2 |
| 20260507132309 | 71 | 143 | 7.8 | 10.4 | 0.00 | 0.00 | 0.00 | 72 | 1008.2 |
| 20260507131809 | 70 | 140 | 6.1 | 10.4 | 0.00 | 0.00 | 0.00 | 68 | 1008.2 |
| 20260507131309 | 71 | 220 | 2.6 | 8.7 | 0.00 | 0.00 | 0.00 | 67 | 1008.4 |
| 20260507125309 | 70 | 207 | 6.1 | 10.4 | 0.00 | 0.00 | 0.00 | 77 | 1008.6 |
| 20260507123308 | 69 | 241 | 5.2 | 8.7 | 0.00 | 0.00 | 0.00 | 77 | 1008.9 |
| 20260507122308 | 69 | 205 | 4.3 | 11.3 | 0.00 | 0.00 | 0.00 | 76 | 1009.1 |
| 20260507121809 | 69 | 229 | 5.2 | 11.3 | 0.00 | 0.00 | 0.00 | 80 | 1009.3 |
| 20260507121309 | 69 | 140 | 2.6 | 13.9 | 0.00 | 0.00 | 0.00 | 79 | 1009.3 |
| 20260507120808 | 69 | 142 | 7.8 | 13.9 | 0.00 | 0.00 | 0.00 | 81 | 1009.3 |
| 20260507120308 | 68 | 192 | 3.5 | 7.8 | 0.00 | 0.00 | 0.00 | 82 | 1009.4 |
| 20260507115808 | 68 | 350 | 2.6 | 10.4 | 0.00 | 0.00 | 0.00 | 83 | 1009.5 |
| 20260507114308 | 67 | 274 | 3.5 | 8.7 | 0.00 | 0.00 | 0.00 | 85 | 1009.7 |
| 20260507113809 | 66 | 214 | 1.7 | 7.8 | 0.00 | 0.00 | 0.00 | 84 | 1009.8 |
| 20260507113309 | 66 | 221 | 4.3 | 8.7 | 0.00 | 0.00 | 0.00 | 86 | 1009.9 |
| 20260507112808 | 66 | 298 | 5.2 | 10.4 | 0.00 | 0.00 | 0.00 | 86 | 1009.9 |
| 20260507111308 | 65 | 8 | 2.6 | 7.0 | 0.00 | 0.00 | 0.00 | 90 | 1009.9 |
| 20260507110808 | 66 | 283 | 1.7 | 6.1 | 0.00 | 0.00 | 0.00 | 90 | 1009.9 |
| 20260507110309 | 66 | 285 | 2.6 | 6.1 | 0.00 | 0.00 | 0.00 | 91 | 1010.0 |
| 20260507105309 | 64 | 35 | 1.7 | 7.8 | 0.00 | 0.00 | 0.00 | 94 | 1010.2 |
| 20260507103308 | 64 | 67 | 2.6 | 6.1 | 0.00 | 0.00 | 0.00 | 99 | 1010.4 |
| 20260507102809 | 63 | 293 | 3.5 | 5.2 | 0.00 | 0.00 | 0.00 | 99 | 1010.5 |
| 20260507102308 | 63 | 40 | 2.6 | 5.2 | 0.00 | 0.00 | 0.00 | 99 | 1010.5 |
| 20260507101808 | 63 | 17 | 2.6 | 5.2 | 0.00 | 0.00 | 0.00 | 100 | 1010.6 |
| 20260507101308 | 62 | 44 | 2.6 | 5.2 | 0.00 | 0.00 | 0.00 | 100 | 1010.6 |